createdAt,value
2017-08-02T00:00:22.961Z,95.8
2017-08-02T00:01:24.673Z,95.3
2017-08-02T00:02:26.477Z,95.3
2017-08-02T00:03:28.191Z,95.4
2017-08-02T00:04:29.915Z,95.2
2017-08-02T00:05:31.636Z,95.4
2017-08-02T00:06:33.348Z,95.2
2017-08-02T00:07:35.195Z,95.1
2017-08-02T00:08:36.921Z,95.9
2017-08-02T00:09:38.897Z,95.6
2017-08-02T00:10:40.992Z,95.7
2017-08-02T00:11:42.801Z,95.6
2017-08-02T00:12:44.514Z,95.8
2017-08-02T00:13:47.527Z,95.8
2017-08-02T00:14:49.647Z,96.3
2017-08-02T00:15:51.610Z,96.3
2017-08-02T00:16:53.331Z,96.2
2017-08-02T00:17:55.261Z,95.7
2017-08-02T00:18:57.075Z,95.9
2017-08-02T00:19:58.824Z,95.3
2017-08-02T00:21:00.541Z,95.1
2017-08-02T00:22:02.222Z,95.6
2017-08-02T00:23:04.127Z,96.2
2017-08-02T00:24:05.820Z,96.5
2017-08-02T00:25:07.569Z,96.0
2017-08-02T00:26:09.307Z,96.5
2017-08-02T00:27:10.983Z,96.5
2017-08-02T00:28:12.701Z,96.5
2017-08-02T00:29:15.544Z,96.3
2017-08-02T00:30:17.278Z,96.5
2017-08-02T00:31:19.059Z,96.1
2017-08-02T00:32:20.716Z,95.9
2017-08-02T00:33:22.673Z,96.1
2017-08-02T00:34:26.528Z,96.1
2017-08-02T00:35:28.242Z,96.3
2017-08-02T00:36:29.894Z,96.2
2017-08-02T00:37:31.751Z,96.3
2017-08-02T00:38:33.395Z,96.4
2017-08-02T00:39:35.213Z,96.2
2017-08-02T00:40:36.877Z,96.6
2017-08-02T00:41:39.572Z,96.5
2017-08-02T00:42:42.041Z,96.4
2017-08-02T00:43:44.502Z,96.1
2017-08-02T00:44:48.087Z,96.1
2017-08-02T00:45:50.302Z,96.1
2017-08-02T00:46:51.957Z,96.1
2017-08-02T00:47:53.793Z,96.2
2017-08-02T00:48:55.451Z,96.5
2017-08-02T00:49:57.381Z,95.9
2017-08-02T00:50:59.225Z,96.6
2017-08-02T00:52:00.990Z,96.5
2017-08-02T00:53:03.453Z,96.1
2017-08-02T00:54:05.352Z,96.5
2017-08-02T00:55:07.159Z,96.0
2017-08-02T00:56:08.898Z,95.9
2017-08-02T00:57:10.551Z,95.8
2017-08-02T00:58:12.292Z,96.3
2017-08-02T00:59:13.948Z,95.9
2017-08-02T01:00:15.707Z,95.9
2017-08-02T01:01:17.353Z,95.9
2017-08-02T01:02:19.208Z,96.4
2017-08-02T01:03:20.858Z,96.6
2017-08-02T01:04:22.698Z,96.6
2017-08-02T01:05:24.342Z,96.4
2017-08-02T01:06:26.172Z,97.0
2017-08-02T01:07:27.818Z,96.8
2017-08-02T01:08:29.563Z,97.1
2017-08-02T01:09:31.214Z,96.9
2017-08-02T01:10:32.990Z,96.9
2017-08-02T01:11:34.646Z,96.9
2017-08-02T01:12:36.299Z,97.1
2017-08-02T01:13:37.954Z,96.9
2017-08-02T01:14:40.324Z,96.5
2017-08-02T01:15:41.980Z,96.4
2017-08-02T01:16:43.625Z,95.8
2017-08-02T01:17:45.277Z,96.1
2017-08-02T01:18:46.927Z,96.0
2017-08-02T01:19:48.604Z,96.1
2017-08-02T01:20:50.254Z,96.3
2017-08-02T01:21:51.916Z,96.0
2017-08-02T01:22:53.561Z,96.7
2017-08-02T01:23:55.211Z,96.5
2017-08-02T01:24:57.604Z,96.0
2017-08-02T01:25:59.254Z,97.1
2017-08-02T01:27:00.914Z,96.8
2017-08-02T01:28:02.591Z,96.7
2017-08-02T01:29:04.248Z,96.9
2017-08-02T01:30:05.898Z,96.8
2017-08-02T01:31:07.583Z,96.9
2017-08-02T01:32:09.313Z,96.8
2017-08-02T01:33:10.993Z,97.0
2017-08-02T01:34:12.640Z,96.6
2017-08-02T01:35:14.301Z,97.7
2017-08-02T01:36:15.957Z,97.5
2017-08-02T01:37:17.630Z,97.4
2017-08-02T01:38:19.300Z,97.4
2017-08-02T01:39:20.957Z,97.4
2017-08-02T01:40:22.609Z,97.5
2017-08-02T01:41:24.268Z,97.4
2017-08-02T01:42:25.920Z,97.4
2017-08-02T01:43:27.575Z,97.3
2017-08-02T01:44:30.168Z,97.6
2017-08-02T01:45:31.829Z,97.7
2017-08-02T01:46:33.504Z,97.2
2017-08-02T01:47:35.191Z,97.2
2017-08-02T01:48:36.846Z,97.3
2017-08-02T01:49:38.562Z,97.7
2017-08-02T01:50:40.208Z,97.3
2017-08-02T01:51:41.878Z,97.2
2017-08-02T01:52:43.537Z,97.7
2017-08-02T01:53:45.186Z,97.5
2017-08-02T01:54:47.002Z,97.6
2017-08-02T01:55:48.674Z,97.0
2017-08-02T01:56:50.442Z,96.8
2017-08-02T01:57:52.089Z,96.7
2017-08-02T01:58:53.828Z,97.2
2017-08-02T01:59:55.501Z,97.3
2017-08-02T02:00:57.332Z,96.8
2017-08-02T02:01:58.990Z,97.3
2017-08-02T02:03:00.661Z,97.4
2017-08-02T02:04:02.331Z,97.5
2017-08-02T02:05:04.129Z,97.4
2017-08-02T02:06:05.775Z,98.0
2017-08-02T02:07:07.504Z,98.1
2017-08-02T02:08:09.156Z,98.0
2017-08-02T02:09:10.910Z,98.3
2017-08-02T02:10:12.560Z,97.7
2017-08-02T02:11:14.284Z,97.8
2017-08-02T02:12:15.936Z,97.7
2017-08-02T02:13:17.741Z,97.7
2017-08-02T02:14:19.403Z,97.7
2017-08-02T02:15:23.169Z,98.3
2017-08-02T02:16:24.827Z,98.2
2017-08-02T02:17:26.602Z,98.4
2017-08-02T02:18:28.270Z,98.3
2017-08-02T02:19:29.969Z,98.1
2017-08-02T02:20:31.619Z,98.5
2017-08-02T02:21:33.382Z,98.6
2017-08-02T02:22:35.057Z,98.2
2017-08-02T02:23:36.777Z,98.0
2017-08-02T02:24:38.434Z,98.2
2017-08-02T02:25:40.137Z,98.4
2017-08-02T02:26:41.792Z,98.4
2017-08-02T02:27:43.530Z,98.4
2017-08-02T02:28:45.182Z,98.3
2017-08-02T02:29:46.923Z,98.2
2017-08-02T02:30:48.580Z,97.3
2017-08-02T02:31:51.338Z,98.2
2017-08-02T02:32:53.056Z,98.4
2017-08-02T02:33:54.745Z,98.3
2017-08-02T02:34:56.404Z,98.4
2017-08-02T02:35:58.138Z,98.1
2017-08-02T02:36:59.785Z,98.1
2017-08-02T02:38:01.519Z,98.1
2017-08-02T02:39:03.181Z,98.1
2017-08-02T02:40:04.917Z,98.1
2017-08-02T02:41:06.596Z,98.2
2017-08-02T02:42:08.308Z,98.3
2017-08-02T02:43:09.955Z,98.5
2017-08-02T02:44:11.702Z,98.4
2017-08-02T02:45:13.384Z,98.2
2017-08-02T02:46:15.104Z,98.4
2017-08-02T02:47:16.763Z,97.9
2017-08-02T02:48:18.491Z,98.0
2017-08-02T02:49:20.156Z,97.7
2017-08-02T02:50:21.886Z,97.4
2017-08-02T02:51:23.576Z,98.3
2017-08-02T02:52:25.277Z,98.3
2017-08-02T02:53:26.946Z,98.2
2017-08-02T02:54:28.665Z,98.3
2017-08-02T02:55:30.318Z,98.2
2017-08-02T02:56:32.054Z,98.2
2017-08-02T02:57:33.746Z,98.2
2017-08-02T02:58:35.449Z,98.4
2017-08-02T02:59:37.121Z,98.4
2017-08-02T03:00:38.834Z,98.1
2017-08-02T03:01:40.483Z,98.4
2017-08-02T03:02:42.228Z,98.2
2017-08-02T03:03:43.879Z,98.1
2017-08-02T03:04:45.618Z,98.4
2017-08-02T03:05:47.299Z,98.0
2017-08-02T03:06:49.023Z,98.5
2017-08-02T03:07:50.675Z,98.4
2017-08-02T03:08:52.419Z,98.4
2017-08-02T03:09:54.066Z,98.4
2017-08-02T03:10:55.798Z,98.1
2017-08-02T03:11:57.459Z,98.6
2017-08-02T03:12:59.854Z,98.0
2017-08-02T03:14:01.513Z,98.6
2017-08-02T03:15:03.279Z,98.3
2017-08-02T03:16:04.934Z,98.1
2017-08-02T03:17:06.696Z,98.0
2017-08-02T03:18:08.347Z,98.5
2017-08-02T03:19:10.083Z,98.4
2017-08-02T03:20:11.775Z,98.3
2017-08-02T03:21:13.448Z,98.2
2017-08-02T03:22:15.120Z,98.0
2017-08-02T03:23:16.849Z,98.3
2017-08-02T03:24:18.498Z,98.2
2017-08-02T03:25:21.274Z,98.3
2017-08-02T03:26:22.925Z,97.8
2017-08-02T03:27:24.648Z,98.0
2017-08-02T03:28:26.370Z,98.1
2017-08-02T03:29:28.129Z,97.4
2017-08-02T03:30:29.783Z,97.7
2017-08-02T03:31:31.536Z,97.7
2017-08-02T03:32:33.249Z,97.5
2017-08-02T03:33:34.928Z,97.5
2017-08-02T03:34:36.589Z,97.5
2017-08-02T03:35:38.339Z,97.8
2017-08-02T03:36:39.982Z,97.3
2017-08-02T03:37:41.728Z,97.5
2017-08-02T03:38:43.372Z,97.2
2017-08-02T03:39:45.129Z,97.0
2017-08-02T03:40:46.796Z,98.0
2017-08-02T03:41:48.523Z,98.0
2017-08-02T03:42:50.173Z,98.2
2017-08-02T03:43:51.931Z,98.0
2017-08-02T03:44:53.588Z,97.9
2017-08-02T03:45:55.607Z,97.8
2017-08-02T03:46:57.260Z,97.9
2017-08-02T03:47:58.953Z,97.8
2017-08-02T03:49:00.607Z,98.1
2017-08-02T03:50:02.260Z,98.1
2017-08-02T03:51:03.917Z,97.7
2017-08-02T03:52:05.565Z,98.1
2017-08-02T03:53:07.218Z,98.0
2017-08-02T03:54:08.862Z,98.2
2017-08-02T03:55:10.539Z,98.0
2017-08-02T03:56:12.218Z,97.7
2017-08-02T03:57:13.955Z,98.0
2017-08-02T03:58:15.623Z,98.1
2017-08-02T03:59:17.410Z,98.1
2017-08-02T04:00:19.065Z,98.2
2017-08-02T04:01:20.795Z,97.8
2017-08-02T04:02:22.514Z,98.2
2017-08-02T04:03:24.298Z,97.7
2017-08-02T04:04:26.027Z,97.9
2017-08-02T04:05:27.831Z,98.1
2017-08-02T04:06:29.493Z,97.0
2017-08-02T04:07:31.894Z,98.4
2017-08-02T04:08:33.577Z,98.5
2017-08-02T04:09:35.292Z,98.3
2017-08-02T04:10:36.966Z,98.4
2017-08-02T04:11:38.691Z,98.5
2017-08-02T04:12:40.539Z,98.4
2017-08-02T04:13:42.305Z,98.4
2017-08-02T04:14:43.958Z,98.4
2017-08-02T04:15:45.713Z,98.2
2017-08-02T04:16:47.382Z,98.4
2017-08-02T04:17:49.174Z,98.3
2017-08-02T04:18:50.828Z,98.6
2017-08-02T04:19:52.590Z,98.6
2017-08-02T04:20:54.244Z,98.2
2017-08-02T04:21:55.938Z,98.0
2017-08-02T04:22:57.589Z,98.3
2017-08-02T04:23:59.333Z,98.3
2017-08-02T04:25:00.998Z,98.3
2017-08-02T04:26:02.823Z,98.1
2017-08-02T04:27:04.478Z,98.3
2017-08-02T04:28:07.341Z,98.2
2017-08-02T04:29:09.009Z,98.4
2017-08-02T04:30:10.794Z,98.3
2017-08-02T04:31:12.442Z,97.9
2017-08-02T04:32:15.179Z,98.1
2017-08-02T04:33:16.833Z,97.3
2017-08-02T04:34:18.574Z,97.5
2017-08-02T04:35:20.234Z,97.8
2017-08-02T04:36:23.985Z,97.6
2017-08-02T04:37:25.658Z,97.5
2017-08-02T04:38:27.412Z,97.9
2017-08-02T04:39:29.278Z,97.0
2017-08-02T04:40:32.049Z,97.5
2017-08-02T04:41:33.707Z,97.3
2017-08-02T04:42:35.455Z,97.0
2017-08-02T04:43:37.108Z,96.6
2017-08-02T04:44:38.835Z,96.9
2017-08-02T04:45:40.484Z,96.8
2017-08-02T04:46:42.233Z,96.1
2017-08-02T04:47:43.930Z,96.5
2017-08-02T04:48:45.721Z,96.6
2017-08-02T04:49:47.394Z,96.2
2017-08-02T04:50:49.214Z,96.1
2017-08-02T04:51:50.877Z,96.2
2017-08-02T04:52:52.620Z,96.0
2017-08-02T04:53:54.276Z,96.3
2017-08-02T04:54:56.105Z,96.3
2017-08-02T04:55:57.761Z,95.8
2017-08-02T04:56:59.500Z,95.9
2017-08-02T04:58:01.158Z,95.7
2017-08-02T04:59:02.890Z,95.5
2017-08-02T05:00:04.544Z,95.4
2017-08-02T05:01:06.281Z,95.0
2017-08-02T05:02:07.937Z,95.5
2017-08-02T05:03:09.646Z,95.4
2017-08-02T05:04:11.313Z,95.4
2017-08-02T05:05:13.046Z,95.5
2017-08-02T05:06:14.704Z,95.3
2017-08-02T05:07:16.438Z,95.3
2017-08-02T05:08:18.095Z,95.6
2017-08-02T05:09:19.823Z,95.7
2017-08-02T05:10:21.485Z,95.6
2017-08-02T05:11:23.235Z,95.3
2017-08-02T05:12:24.894Z,95.1
2017-08-02T05:13:26.634Z,95.7
2017-08-02T05:14:28.334Z,95.1
2017-08-02T05:15:30.120Z,95.5
2017-08-02T05:16:31.818Z,95.1
2017-08-02T05:17:33.605Z,94.9
2017-08-02T05:18:35.280Z,95.0
2017-08-02T05:19:36.962Z,94.9
2017-08-02T05:20:38.632Z,95.1
2017-08-02T05:21:40.369Z,95.3
2017-08-02T05:22:42.044Z,94.9
2017-08-02T05:23:43.794Z,94.6
2017-08-02T05:24:45.449Z,95.1
2017-08-02T05:25:47.223Z,95.3
2017-08-02T05:26:48.874Z,95.0
2017-08-02T05:27:50.634Z,95.2
2017-08-02T05:28:52.320Z,94.7
2017-08-02T05:29:54.028Z,94.9
2017-08-02T05:30:55.688Z,95.2
2017-08-02T05:31:57.422Z,95.7
2017-08-02T05:32:59.081Z,95.1
2017-08-02T05:34:00.829Z,95.1
2017-08-02T05:35:02.479Z,95.6
2017-08-02T05:36:04.248Z,95.3
2017-08-02T05:37:05.932Z,95.4
2017-08-02T05:38:07.714Z,95.6
2017-08-02T05:39:09.391Z,95.6
2017-08-02T05:40:11.111Z,95.3
2017-08-02T05:41:12.788Z,95.5
2017-08-02T05:42:14.524Z,95.5
2017-08-02T05:43:16.177Z,95.3
2017-08-02T05:44:17.916Z,95.3
2017-08-02T05:45:19.574Z,95.3
2017-08-02T05:46:21.286Z,95.6
2017-08-02T05:47:22.939Z,95.6
2017-08-02T05:48:24.730Z,95.4
2017-08-02T05:49:26.394Z,95.6
2017-08-02T05:50:28.177Z,95.3
2017-08-02T05:51:29.838Z,95.3
2017-08-02T05:52:31.569Z,95.3
2017-08-02T05:53:33.237Z,95.2
2017-08-02T05:54:34.949Z,95.4
2017-08-02T05:55:36.598Z,95.2
2017-08-02T05:56:38.350Z,95.2
2017-08-02T05:57:40.001Z,95.2
2017-08-02T05:58:41.733Z,95.2
2017-08-02T05:59:43.388Z,95.5
2017-08-02T06:00:45.148Z,95.6
2017-08-02T06:01:46.868Z,95.6
2017-08-02T06:02:48.682Z,95.6
2017-08-02T06:03:50.339Z,95.5
2017-08-02T06:04:52.171Z,95.6
2017-08-02T06:05:53.828Z,95.4
2017-08-02T06:06:55.642Z,95.3
2017-08-02T06:07:57.302Z,95.5
2017-08-02T06:08:59.010Z,95.2
2017-08-02T06:10:00.660Z,95.3
2017-08-02T06:11:02.459Z,95.3
2017-08-02T06:12:04.120Z,95.2
2017-08-02T06:13:05.985Z,94.9
2017-08-02T06:14:07.636Z,95.5
2017-08-02T06:15:09.435Z,95.6
2017-08-02T06:16:11.123Z,95.2
2017-08-02T06:17:12.916Z,94.8
2017-08-02T06:18:14.575Z,95.1
2017-08-02T06:19:16.313Z,95.2
2017-08-02T06:20:18.038Z,94.8
2017-08-02T06:21:20.815Z,94.7
2017-08-02T06:22:22.493Z,94.7
2017-08-02T06:23:24.309Z,95.0
2017-08-02T06:24:25.973Z,94.9
2017-08-02T06:25:27.727Z,94.8
2017-08-02T06:26:29.409Z,94.7
2017-08-02T06:27:32.028Z,94.8
2017-08-02T06:28:34.600Z,94.8
2017-08-02T06:29:36.361Z,94.6
2017-08-02T06:30:38.022Z,94.6
2017-08-02T06:31:39.850Z,94.5
2017-08-02T06:32:41.546Z,94.4
2017-08-02T06:33:43.330Z,94.3
2017-08-02T06:34:45.013Z,93.9
2017-08-02T06:35:46.774Z,93.7
2017-08-02T06:36:48.453Z,93.3
2017-08-02T06:37:50.168Z,93.3
2017-08-02T06:38:51.824Z,93.6
2017-08-02T06:39:54.681Z,92.5
2017-08-02T06:40:56.336Z,92.6
2017-08-02T06:41:58.200Z,92.3
2017-08-02T06:42:59.873Z,92.7
2017-08-02T06:44:01.579Z,92.6
2017-08-02T06:45:03.279Z,92.6
2017-08-02T06:46:05.063Z,92.6
2017-08-02T06:47:06.730Z,92.5
2017-08-02T06:48:08.595Z,92.7
2017-08-02T06:49:10.257Z,92.5
2017-08-02T06:50:12.051Z,92.7
2017-08-02T06:51:13.720Z,92.7
2017-08-02T06:52:15.502Z,91.9
2017-08-02T06:53:17.156Z,92.3
2017-08-02T06:54:19.951Z,92.1
2017-08-02T06:55:21.619Z,91.5
2017-08-02T06:56:23.423Z,91.7
2017-08-02T06:57:25.096Z,91.1
2017-08-02T06:58:26.856Z,91.4
2017-08-02T06:59:28.541Z,91.1
2017-08-02T07:00:30.245Z,90.8
2017-08-02T07:01:31.934Z,91.4
2017-08-02T07:02:33.659Z,91.0
2017-08-02T07:03:35.309Z,90.8
2017-08-02T07:04:38.121Z,90.9
2017-08-02T07:05:39.805Z,90.4
2017-08-02T07:06:41.614Z,90.5
2017-08-02T07:07:43.358Z,89.9
2017-08-02T07:08:45.188Z,89.6
2017-08-02T07:09:46.913Z,89.8
2017-08-02T07:10:48.661Z,89.2
2017-08-02T07:11:50.345Z,89.4
2017-08-02T07:12:52.180Z,89.4
2017-08-02T07:13:53.879Z,89.1
2017-08-02T07:14:55.695Z,89.4
2017-08-02T07:15:57.349Z,89.2
2017-08-02T07:16:59.150Z,89.4
2017-08-02T07:18:00.839Z,89.1
2017-08-02T07:19:02.694Z,89.1
2017-08-02T07:20:04.432Z,88.9
2017-08-02T07:21:06.152Z,88.3
2017-08-02T07:22:07.886Z,88.3
2017-08-02T07:23:09.734Z,88.3
2017-08-02T07:24:11.441Z,88.3
2017-08-02T07:25:13.174Z,87.8
2017-08-02T07:26:14.878Z,87.6
2017-08-02T07:27:16.720Z,87.4
2017-08-02T07:28:25.387Z,87.1
2017-08-02T07:29:27.173Z,87.3
2017-08-02T07:30:30.035Z,87.1
2017-08-02T07:31:31.805Z,87.3
2017-08-02T07:32:33.634Z,86.7
2017-08-02T07:33:35.379Z,86.2
2017-08-02T07:34:37.074Z,85.9
2017-08-02T07:35:38.824Z,85.0
2017-08-02T07:36:40.877Z,85.5
2017-08-02T07:37:42.592Z,85.0
2017-08-02T07:38:44.382Z,84.6
2017-08-02T07:39:46.147Z,84.8
2017-08-02T07:40:47.929Z,84.3
2017-08-02T07:41:49.718Z,83.6
2017-08-02T07:42:51.461Z,82.7
2017-08-02T07:43:53.199Z,82.2
2017-08-02T07:44:54.944Z,82.3
2017-08-02T07:45:56.715Z,82.1
2017-08-02T07:46:58.449Z,81.9
2017-08-02T07:48:00.104Z,82.0
2017-08-02T07:49:01.858Z,82.0
2017-08-02T07:50:03.586Z,80.8
2017-08-02T07:51:05.321Z,80.5
2017-08-02T07:52:07.044Z,79.5
2017-08-02T07:53:08.794Z,79.9
2017-08-02T07:54:11.356Z,79.5
2017-08-02T07:55:14.088Z,79.2
2017-08-02T07:56:15.816Z,77.5
2017-08-02T07:57:17.514Z,77.7
2017-08-02T07:58:19.273Z,77.7
2017-08-02T07:59:21.009Z,77.0
2017-08-02T08:00:22.731Z,77.7
2017-08-02T08:01:24.478Z,77.8
2017-08-02T08:02:26.142Z,78.0
2017-08-02T08:03:27.935Z,78.7
2017-08-02T08:04:29.688Z,78.8
2017-08-02T08:05:31.412Z,78.1
2017-08-02T08:06:33.183Z,78.4
2017-08-02T08:07:34.894Z,78.8
2017-08-02T08:08:36.628Z,78.6
2017-08-02T08:09:38.312Z,78.8
2017-08-02T08:10:40.050Z,78.0
2017-08-02T08:11:41.776Z,78.3
2017-08-02T08:12:43.560Z,78.5
2017-08-02T08:13:45.309Z,78.8
2017-08-02T08:14:47.057Z,78.8
2017-08-02T08:15:49.785Z,78.5
2017-08-02T08:16:51.554Z,78.7
2017-08-02T08:17:53.333Z,78.1
2017-08-02T08:18:55.093Z,77.5
2017-08-02T08:19:56.771Z,77.8
2017-08-02T08:20:58.516Z,77.5
2017-08-02T08:22:00.248Z,77.5
2017-08-02T08:23:01.979Z,77.3
2017-08-02T08:24:03.794Z,77.5
2017-08-02T08:25:05.488Z,77.6
2017-08-02T08:26:07.232Z,78.1
2017-08-02T08:27:08.915Z,77.9
2017-08-02T08:28:10.660Z,78.2
2017-08-02T08:29:12.408Z,77.9
2017-08-02T08:30:14.140Z,78.2
2017-08-02T08:31:15.896Z,78.4
2017-08-02T08:32:17.599Z,78.1
2017-08-02T08:33:19.353Z,78.2
2017-08-02T08:34:21.144Z,78.0
2017-08-02T08:35:22.906Z,78.0
2017-08-02T08:36:24.731Z,78.2
2017-08-02T08:37:26.492Z,78.1
2017-08-02T08:38:28.215Z,78.7
2017-08-02T08:39:29.947Z,78.3
2017-08-02T08:40:31.688Z,78.8
2017-08-02T08:41:33.473Z,78.5
2017-08-02T08:42:35.130Z,78.4
2017-08-02T08:43:36.847Z,78.1
2017-08-02T08:44:38.605Z,77.8
2017-08-02T08:45:40.360Z,77.2
2017-08-02T08:46:42.114Z,77.2
2017-08-02T08:47:43.814Z,76.9
2017-08-02T08:48:45.582Z,77.2
2017-08-02T08:49:47.232Z,77.6
2017-08-02T08:50:48.956Z,77.6
2017-08-02T08:51:50.690Z,77.4
2017-08-02T08:52:52.423Z,77.6
2017-08-02T08:53:54.154Z,77.4
2017-08-02T08:54:55.922Z,77.6
2017-08-02T08:55:57.674Z,77.4
2017-08-02T08:56:59.345Z,77.7
2017-08-02T08:58:01.082Z,77.5
2017-08-02T08:59:02.824Z,77.7
2017-08-02T09:00:04.579Z,76.8
2017-08-02T09:01:06.318Z,76.5
2017-08-02T09:02:07.992Z,76.3
2017-08-02T09:03:09.721Z,76.6
2017-08-02T09:04:11.442Z,76.7
2017-08-02T09:05:13.196Z,77.0
2017-08-02T09:06:14.918Z,76.1
2017-08-02T09:07:16.657Z,76.5
2017-08-02T09:08:18.478Z,77.5
2017-08-02T09:09:20.238Z,77.4
2017-08-02T09:10:22.049Z,77.3
2017-08-02T09:11:24.874Z,78.1
2017-08-02T09:12:26.620Z,77.4
2017-08-02T09:13:28.406Z,77.7
2017-08-02T09:14:30.133Z,77.6
2017-08-02T09:15:31.868Z,77.1
2017-08-02T09:16:33.639Z,76.7
2017-08-02T09:17:35.445Z,76.2
2017-08-02T09:18:37.185Z,76.1
2017-08-02T09:19:38.933Z,76.1
2017-08-02T09:20:40.698Z,75.5
2017-08-02T09:21:42.421Z,76.2
2017-08-02T09:22:44.112Z,76.2
2017-08-02T09:23:47.084Z,76.6
2017-08-02T09:24:48.853Z,76.4
2017-08-02T09:25:50.686Z,77.1
2017-08-02T09:26:52.436Z,77.9
2017-08-02T09:27:54.262Z,77.5
2017-08-02T09:28:56.400Z,77.7
2017-08-02T09:29:59.162Z,77.7
2017-08-02T09:31:02.166Z,77.8
2017-08-02T09:32:03.985Z,77.7
2017-08-02T09:33:06.360Z,76.9
2017-08-02T09:34:08.129Z,77.1
2017-08-02T09:35:09.969Z,76.8
2017-08-02T09:36:11.754Z,77.7
2017-08-02T09:37:13.591Z,77.6
2017-08-02T09:38:17.524Z,76.9
2017-08-02T09:39:19.384Z,76.4
2017-08-02T09:40:21.232Z,76.9
2017-08-02T09:41:22.900Z,76.9
2017-08-02T09:42:24.634Z,76.5
2017-08-02T09:43:26.402Z,76.1
2017-08-02T09:44:28.197Z,75.5
2017-08-02T09:45:29.920Z,75.2
2017-08-02T09:46:31.641Z,75.4
2017-08-02T09:47:33.366Z,75.0
2017-08-02T09:48:35.215Z,74.5
2017-08-02T09:49:36.992Z,74.5
2017-08-02T09:50:38.765Z,74.7
2017-08-02T09:51:40.508Z,74.3
2017-08-02T09:52:43.582Z,74.6
2017-08-02T09:53:45.425Z,74.0
2017-08-02T09:54:47.165Z,72.5
2017-08-02T09:55:48.907Z,72.7
2017-08-02T09:56:50.646Z,72.7
2017-08-02T09:57:52.312Z,73.2
2017-08-02T09:58:54.271Z,72.9
2017-08-02T09:59:56.043Z,72.6
2017-08-02T10:01:02.635Z,72.8
2017-08-02T10:02:04.417Z,72.8
2017-08-02T10:03:06.137Z,72.6
2017-08-02T10:04:07.872Z,72.1
2017-08-02T10:05:21.576Z,71.3
2017-08-02T10:06:23.565Z,71.8
2017-08-02T10:10:33.791Z,72.7
2017-08-02T10:11:35.577Z,72.3
2017-08-02T10:12:43.070Z,72.2
2017-08-02T10:13:44.759Z,72.1
2017-08-02T10:21:43.303Z,68.7
2017-08-02T10:22:45.250Z,68.4
2017-08-02T10:23:48.986Z,68.5
2017-08-02T10:24:50.765Z,68.5
2017-08-02T10:25:53.004Z,67.0
2017-08-02T10:26:54.692Z,67.0
2017-08-02T10:29:41.700Z,64.5
2017-08-02T10:30:43.478Z,64.1
2017-08-02T10:31:51.123Z,63.6
2017-08-02T10:32:53.635Z,63.5
2017-08-02T10:33:56.067Z,62.6
2017-08-02T10:34:57.790Z,62.3
2017-08-02T10:36:00.620Z,62.4
2017-08-02T10:37:02.383Z,61.7
2017-08-02T10:38:11.083Z,61.1
2017-08-02T10:39:12.795Z,61.1
2017-08-02T10:40:20.575Z,60.5
2017-08-02T10:41:22.556Z,60.1
2017-08-02T10:42:24.526Z,60.4
2017-08-02T10:43:26.254Z,59.7
2017-08-02T10:44:28.320Z,60.0
2017-08-02T10:45:30.162Z,60.0
2017-08-02T10:46:33.924Z,59.7
2017-08-02T10:47:35.627Z,59.6
2017-08-02T10:48:43.118Z,59.1
2017-08-02T10:49:44.883Z,58.4
2017-08-02T10:50:47.718Z,58.6
2017-08-02T10:51:49.467Z,58.5
2017-08-02T10:52:57.099Z,58.5
2017-08-02T10:53:58.794Z,58.4
2017-08-02T10:55:15.574Z,58.1
2017-08-02T10:56:17.299Z,58.2
2017-08-02T10:57:30.042Z,57.4
2017-08-02T10:58:31.774Z,57.3
2017-08-02T10:59:35.232Z,56.9
2017-08-02T11:00:36.942Z,57.1
2017-08-02T11:01:54.623Z,57.2
2017-08-02T11:02:58.400Z,57.3
2017-08-02T11:04:07.143Z,57.8
2017-08-02T11:05:08.873Z,57.7
2017-08-02T11:06:10.627Z,57.5
2017-08-02T11:07:12.384Z,56.9
2017-08-02T11:08:14.228Z,57.4
2017-08-02T11:09:15.951Z,56.9
2017-08-02T11:10:18.757Z,56.2
2017-08-02T11:11:21.436Z,55.4
2017-08-02T11:12:23.240Z,55.9
2017-08-02T11:13:24.979Z,55.6
2017-08-02T11:14:27.839Z,55.4
2017-08-02T11:15:29.560Z,54.8
2017-08-02T11:16:32.720Z,54.8
2017-08-02T11:17:34.429Z,54.4
2017-08-02T11:18:36.133Z,53.6
2017-08-02T11:19:37.898Z,53.9
2017-08-02T11:20:40.730Z,53.1
2017-08-02T11:21:42.480Z,52.6
2017-08-02T11:22:55.102Z,52.4
2017-08-02T11:23:56.866Z,53.0
2017-08-02T11:24:59.622Z,52.9
2017-08-02T11:26:01.291Z,52.5
2017-08-02T11:27:03.166Z,52.3
2017-08-02T11:28:04.907Z,52.4
2017-08-02T11:29:11.505Z,52.0
2017-08-02T11:30:13.222Z,51.9
2017-08-02T11:33:55.141Z,51.7
2017-08-02T11:34:56.956Z,51.4
2017-08-02T11:35:58.692Z,51.6
2017-08-02T11:37:00.622Z,52.0
2017-08-02T11:38:02.378Z,52.8
2017-08-02T11:39:04.182Z,53.2
2017-08-02T11:40:05.923Z,53.2
2017-08-02T11:41:12.551Z,53.9
2017-08-02T11:42:15.463Z,54.3
2017-08-02T11:44:29.023Z,54.9
2017-08-02T11:45:31.662Z,55.2
2017-08-02T11:46:33.315Z,56.0
2017-08-02T11:47:36.138Z,55.6
2017-08-02T11:48:37.881Z,55.4
2017-08-02T11:49:39.693Z,55.1
2017-08-02T11:50:41.920Z,54.4
2017-08-02T11:51:44.770Z,53.6
2017-08-02T11:52:46.916Z,53.3
2017-08-02T11:53:50.773Z,52.8
2017-08-02T11:54:52.486Z,52.1
2017-08-02T11:55:55.479Z,52.1
2017-08-02T11:56:57.210Z,52.1
2017-08-02T11:57:59.946Z,51.6
2017-08-02T11:59:01.674Z,51.7
2017-08-02T12:00:03.540Z,51.5
2017-08-02T12:01:05.358Z,51.6
2017-08-02T12:02:08.142Z,51.3
2017-08-02T12:03:09.801Z,51.2
2017-08-02T12:04:11.624Z,51.4
2017-08-02T12:05:13.451Z,51.4
2017-08-02T12:06:18.076Z,50.6
2017-08-02T12:07:19.749Z,50.9
2017-08-02T12:08:21.511Z,51.2
2017-08-02T12:09:23.277Z,51.6
2017-08-02T12:10:30.793Z,51.5
2017-08-02T12:11:32.508Z,52.5
2017-08-02T12:12:40.005Z,52.5
2017-08-02T12:13:41.940Z,52.2
2017-08-02T12:14:44.917Z,51.9
2017-08-02T12:15:46.610Z,51.9
2017-08-02T12:16:50.469Z,51.7
2017-08-02T12:17:52.253Z,51.3
2017-08-02T12:18:55.995Z,51.5
2017-08-02T12:19:57.733Z,50.6
2017-08-02T12:21:00.236Z,51.2
2017-08-02T12:22:01.964Z,51.2
2017-08-02T12:23:19.330Z,51.2
2017-08-02T12:24:21.068Z,50.6
2017-08-02T12:25:22.863Z,50.0
2017-08-02T12:26:24.551Z,50.8
2017-08-02T12:27:27.311Z,51.1
2017-08-02T12:28:29.043Z,51.2
2017-08-02T12:29:35.512Z,51.5
2017-08-02T12:30:37.274Z,51.0
2017-08-02T12:31:40.085Z,50.6
2017-08-02T12:32:41.844Z,50.4
2017-08-02T12:33:43.732Z,50.8
2017-08-02T12:34:45.498Z,50.7
2017-08-02T12:35:47.283Z,50.9
2017-08-02T12:36:49.004Z,50.6
2017-08-02T12:37:50.730Z,51.2
2017-08-02T12:38:52.451Z,50.5
2017-08-02T12:39:55.171Z,49.8
2017-08-02T12:40:56.937Z,49.8
2017-08-02T12:41:59.774Z,49.8
2017-08-02T12:43:01.493Z,49.2
2017-08-02T12:44:05.295Z,49.2
2017-08-02T12:45:07.024Z,48.4
2017-08-02T12:46:08.821Z,48.1
2017-08-02T12:47:10.548Z,47.4
2017-08-02T12:48:12.362Z,48.2
2017-08-02T12:49:14.108Z,48.3
2017-08-02T12:50:15.896Z,48.3
2017-08-02T12:51:17.664Z,47.9
2017-08-02T12:52:19.476Z,47.2
2017-08-02T12:53:22.068Z,48.0
2017-08-02T12:54:23.813Z,48.2
2017-08-02T12:55:25.518Z,49.0
2017-08-02T12:56:27.369Z,48.5
2017-08-02T12:57:29.127Z,47.3
2017-08-02T12:58:30.885Z,46.4
2017-08-02T12:59:32.669Z,46.1
2017-08-02T13:00:34.630Z,46.3
2017-08-02T13:01:36.699Z,46.2
2017-08-02T13:02:38.479Z,46.4
2017-08-02T13:03:40.207Z,45.8
2017-08-02T13:04:42.949Z,45.3
2017-08-02T13:05:44.760Z,45.3
2017-08-02T13:06:46.534Z,46.2
2017-08-02T13:07:48.285Z,46.8
2017-08-02T13:08:50.006Z,47.1
2017-08-02T13:09:51.763Z,46.2
2017-08-02T13:10:53.514Z,46.7
2017-08-02T13:11:55.371Z,46.1
2017-08-02T13:12:57.149Z,46.1
2017-08-02T13:13:58.891Z,45.8
2017-08-02T13:15:00.742Z,46.3
2017-08-02T13:16:02.507Z,47.0
2017-08-02T13:17:04.177Z,46.9
2017-08-02T13:18:05.871Z,46.3
2017-08-02T13:19:07.865Z,46.5
2017-08-02T13:20:11.684Z,46.5
2017-08-02T13:21:13.450Z,45.9
2017-08-02T13:22:17.047Z,48.1
2017-08-02T13:23:18.768Z,49.2
2017-08-02T13:24:20.495Z,50.7
2017-08-02T13:25:22.159Z,49.3
2017-08-02T13:26:28.111Z,48.9
2017-08-02T13:27:29.967Z,49.1
2017-08-02T13:28:31.848Z,48.7
2017-08-02T13:29:33.687Z,47.6
2017-08-02T13:30:35.408Z,50.0
2017-08-02T13:31:37.245Z,50.3
2017-08-02T13:32:38.932Z,48.6
2017-08-02T13:33:40.750Z,47.4
2017-08-02T13:34:42.500Z,46.2
2017-08-02T13:35:44.328Z,46.0
2017-08-02T13:36:46.085Z,46.3
2017-08-02T13:37:49.063Z,45.8
2017-08-02T13:38:51.220Z,45.3
2017-08-02T13:39:52.967Z,46.1
2017-08-02T13:40:54.702Z,47.6
2017-08-02T13:41:57.414Z,48.2
2017-08-02T13:42:59.094Z,47.6
2017-08-02T13:44:00.823Z,47.8
2017-08-02T13:45:02.603Z,47.6
2017-08-02T13:46:05.406Z,47.1
2017-08-02T13:47:07.141Z,46.8
2017-08-02T13:48:08.903Z,46.1
2017-08-02T13:49:10.691Z,47.0
2017-08-02T13:50:12.513Z,47.1
2017-08-02T13:51:14.183Z,46.2
2017-08-02T13:52:15.906Z,46.1
2017-08-02T13:53:17.582Z,46.2
2017-08-02T13:54:19.396Z,49.0
2017-08-02T13:55:21.127Z,50.6
2017-08-02T13:56:28.916Z,51.6
2017-08-02T13:57:30.662Z,51.6
2017-08-02T13:58:33.483Z,50.2
2017-08-02T13:59:35.208Z,50.4
2017-08-02T14:00:38.060Z,49.2
2017-08-02T14:01:39.785Z,49.4